Time;durP1;ratioP1;P1;durP2;ratioP2;P2;SDS_P1;SDS_P2;PMS_P1;PMS_P2;Temp;Humidity;BMP_temperature;BMP_pressure;BME280_temperature;BME280_humidity;BME280_pressure;Samples;Min_cycle;Max_cycle;Signal;HPM_P1;HPM_P2
2023/04/15 00:00:57;;;;;;;;;;;10.90;61.60;;;;;;5073085;28;20016;-36
2023/04/15 00:03:23;;;;;;;;;;;10.80;61.60;;;;;;5072419;28;19912;-36
2023/04/15 00:05:48;;;;;;;;;;;10.80;61.60;;;;;;5072490;28;19935;-36
2023/04/15 00:08:14;;;;;;;;;;;10.80;61.70;;;;;;5072686;28;19969;-35
2023/04/15 00:10:42;;;;;;;;;;;10.80;61.70;;;;;;5072327;28;20372;-36
2023/04/15 00:13:09;;;;;;;;;;;10.70;61.70;;;;;;5072272;28;20399;-35
2023/04/15 00:15:34;;;;;;;;;;;10.70;61.80;;;;;;5072316;28;20392;-36
2023/04/15 00:18:01;;;;;;;;;;;10.70;61.90;;;;;;5072338;28;19970;-33
2023/04/15 00:20:26;;;;;;;;;;;10.70;62.00;;;;;;5072548;28;20003;-36
2023/04/15 00:22:52;;;;;;;;;;;10.70;62.00;;;;;;5072188;28;19960;-35
2023/04/15 00:25:17;;;;;;;;;;;10.60;62.00;;;;;;5071866;28;20008;-36
2023/04/15 00:27:43;;;;;;;;;;;10.60;62.10;;;;;;5071902;28;19957;-38
2023/04/15 00:30:09;;;;;;;;;;;10.60;62.20;;;;;;5071884;28;20459;-36
2023/04/15 00:32:34;;;;;;;;;;;10.60;62.20;;;;;;5072061;28;19984;-36
2023/04/15 00:35:01;;;;;;;;;;;10.60;62.30;;;;;;5072132;28;20280;-34
2023/04/15 00:37:26;;;;;;;;;;;10.50;62.30;;;;;;5072052;28;20432;-36
2023/04/15 00:39:52;;;;;;;;;;;10.50;62.40;;;;;;5071720;28;20027;-35
2023/04/15 00:42:17;;;;;;;;;;;10.40;62.40;;;;;;5071338;28;20260;-37
2023/04/15 00:44:43;;;;;;;;;;;10.40;62.50;;;;;;5071822;28;19913;-35
2023/04/15 00:47:10;;;;;;;;;;;10.40;62.70;;;;;;5071993;28;19916;-35
2023/04/15 00:49:35;;;;;;;;;;;10.40;62.80;;;;;;5071882;28;20288;-38
2023/04/15 00:52:02;;;;;;;;;;;10.30;62.80;;;;;;5071675;28;19913;-35
2023/04/15 00:54:27;;;;;;;;;;;10.30;62.90;;;;;;5071867;28;20011;-36
2023/04/15 00:56:53;;;;;;;;;;;10.30;63.00;;;;;;5071849;28;20007;-36
2023/04/15 00:59:19;;;;;;;;;;;10.20;63.00;;;;;;5072037;28;19923;-35
2023/04/15 01:01:45;;;;;;;;;;;10.20;63.10;;;;;;5071669;28;20432;-36
2023/04/15 01:04:11;;;;;;;;;;;10.20;63.20;;;;;;5071870;28;19963;-36
2023/04/15 01:06:37;;;;;;;;;;;10.20;63.40;;;;;;5072025;28;20390;-36
2023/04/15 01:09:03;;;;;;;;;;;10.20;63.40;;;;;;5071431;28;19912;-34
2023/04/15 01:11:29;;;;;;;;;;;10.20;63.50;;;;;;5071853;28;20012;-36
2023/04/15 01:13:57;;;;;;;;;;;10.20;63.60;;;;;;5071864;28;19962;-36
2023/04/15 01:16:22;;;;;;;;;;;10.10;63.60;;;;;;5071602;28;19959;-36
2023/04/15 01:18:48;;;;;;;;;;;10.10;63.70;;;;;;5071629;28;19975;-35
2023/04/15 01:21:13;;;;;;;;;;;10.10;63.80;;;;;;5071569;28;20015;-34
2023/04/15 01:23:39;;;;;;;;;;;10.10;63.80;;;;;;5071451;28;19947;-35
2023/04/15 01:26:06;;;;;;;;;;;10.10;63.80;;;;;;5071429;28;19961;-36
2023/04/15 01:28:32;;;;;;;;;;;10.10;63.90;;;;;;5070931;28;19981;-37
2023/04/15 01:31:18;;;;;;;;;;;10.10;64.00;;;;;;5071502;28;20006;-37
2023/04/15 01:33:43;;;;;;;;;;;10.10;64.10;;;;;;5070955;28;19913;-45
2023/04/15 01:36:09;;;;;;;;;;;10.10;64.10;;;;;;5071486;28;20315;-35
2023/04/15 01:38:35;;;;;;;;;;;10.10;64.20;;;;;;5071220;28;19920;-35
2023/04/15 01:41:03;;;;;;;;;;;10.00;64.20;;;;;;5071353;28;19912;-35
2023/04/15 01:43:29;;;;;;;;;;;10.00;64.30;;;;;;5071458;28;20389;-34
2023/04/15 01:45:55;;;;;;;;;;;10.00;64.30;;;;;;5071325;28;19967;-36
2023/04/15 01:48:21;;;;;;;;;;;10.00;64.40;;;;;;5071444;28;19913;-36
2023/04/15 01:50:46;;;;;;;;;;;10.00;64.40;;;;;;5070923;28;19916;-36
2023/04/15 01:53:12;;;;;;;;;;;10.00;64.50;;;;;;5071409;28;19917;-34
2023/04/15 01:55:38;;;;;;;;;;;10.00;64.70;;;;;;5074073;28;19955;-37
2023/04/15 01:58:03;;;;;;;;;;;10.00;64.70;;;;;;5074839;28;19959;-35
2023/04/15 02:00:31;;;;;;;;;;;10.00;64.80;;;;;;5074771;28;19916;-34
2023/04/15 02:02:56;;;;;;;;;;;10.00;64.90;;;;;;5075171;28;20023;-36
2023/04/15 02:05:23;;;;;;;;;;;10.00;64.90;;;;;;5074630;28;19925;-32
2023/04/15 02:07:49;;;;;;;;;;;9.90;64.90;;;;;;5074571;28;19919;-35
2023/04/15 02:10:15;;;;;;;;;;;9.90;65.00;;;;;;5074673;28;19952;-35
2023/04/15 02:12:41;;;;;;;;;;;9.90;65.00;;;;;;5074621;28;20268;-37
2023/04/15 02:15:07;;;;;;;;;;;9.90;65.10;;;;;;5074467;28;20004;-35
2023/04/15 02:17:36;;;;;;;;;;;9.90;65.10;;;;;;5074385;28;20151;-35
2023/04/15 02:20:03;;;;;;;;;;;9.90;65.20;;;;;;5074340;28;19913;-35
2023/04/15 02:22:29;;;;;;;;;;;9.90;65.30;;;;;;5074753;28;19916;-35
2023/04/15 02:24:54;;;;;;;;;;;9.80;65.30;;;;;;5074266;28;20363;-35
2023/04/15 02:27:21;;;;;;;;;;;9.80;65.30;;;;;;5074618;28;19909;-35
2023/04/15 02:29:47;;;;;;;;;;;9.80;65.40;;;;;;5074035;28;19967;-35
2023/04/15 02:32:12;;;;;;;;;;;9.80;65.40;;;;;;5073987;28;19916;-34
2023/04/15 02:34:40;;;;;;;;;;;9.80;65.40;;;;;;5074238;28;19908;-35
2023/04/15 02:37:06;;;;;;;;;;;9.80;65.50;;;;;;5074172;28;19995;-39
2023/04/15 02:39:31;;;;;;;;;;;9.80;65.60;;;;;;5073907;28;20002;-35
2023/04/15 02:41:58;;;;;;;;;;;9.80;65.70;;;;;;5073971;28;19964;-35
2023/04/15 02:44:24;;;;;;;;;;;9.80;65.90;;;;;;5074092;28;20200;-35
2023/04/15 02:46:51;;;;;;;;;;;9.70;65.90;;;;;;5073870;28;20427;-35
2023/04/15 02:49:17;;;;;;;;;;;9.70;66.00;;;;;;5074148;28;19909;-35
2023/04/15 02:51:46;;;;;;;;;;;9.70;66.10;;;;;;5072775;28;19915;-35
2023/04/15 02:54:12;;;;;;;;;;;9.60;66.20;;;;;;5073835;28;20338;-41
2023/04/15 02:56:37;;;;;;;;;;;9.60;66.40;;;;;;5073685;28;19962;-35
2023/04/15 02:59:03;;;;;;;;;;;9.50;66.50;;;;;;5073306;28;20012;-35
2023/04/15 03:01:29;;;;;;;;;;;9.50;66.60;;;;;;5073388;28;19913;-35
2023/04/15 03:03:54;;;;;;;;;;;9.50;66.70;;;;;;5073133;28;20374;-35
2023/04/15 03:06:20;;;;;;;;;;;9.40;67.50;;;;;;5073477;28;19915;-35
2023/04/15 03:08:45;;;;;;;;;;;9.40;67.00;;;;;;5073896;28;20000;-35
2023/04/15 03:11:11;;;;;;;;;;;9.30;67.00;;;;;;5072139;28;20201;-35
2023/04/15 03:13:38;;;;;;;;;;;9.30;67.20;;;;;;5073355;28;19908;-35
2023/04/15 03:16:04;;;;;;;;;;;9.30;67.30;;;;;;5073309;28;20412;-33
2023/04/15 03:18:29;;;;;;;;;;;9.20;67.50;;;;;;5073384;28;19916;-39
2023/04/15 03:20:55;;;;;;;;;;;9.20;67.60;;;;;;5071887;28;19909;-35
2023/04/15 03:23:20;;;;;;;;;;;9.20;67.60;;;;;;5073202;28;20301;-34
2023/04/15 03:25:46;;;;;;;;;;;9.20;67.70;;;;;;5073242;28;19912;-35
2023/04/15 03:28:11;;;;;;;;;;;9.10;67.70;;;;;;5071562;28;20313;-33
2023/04/15 03:30:37;;;;;;;;;;;9.10;67.80;;;;;;5073235;28;19909;-35
2023/04/15 03:33:02;;;;;;;;;;;9.10;67.80;;;;;;5072886;28;20283;-35
2023/04/15 03:35:28;;;;;;;;;;;9.10;68.00;;;;;;5073080;28;19919;-35
2023/04/15 03:37:53;;;;;;;;;;;9.10;68.10;;;;;;5073500;28;19913;-34
2023/04/15 03:40:20;;;;;;;;;;;9.10;68.20;;;;;;5073031;28;19948;-35
2023/04/15 03:42:45;;;;;;;;;;;9.00;68.40;;;;;;5071144;28;19944;-34
2023/04/15 03:45:11;;;;;;;;;;;9.00;68.60;;;;;;5072839;28;19908;-34
2023/04/15 03:47:36;;;;;;;;;;;9.00;68.60;;;;;;5072729;28;19915;-34
2023/04/15 03:50:02;;;;;;;;;;;8.90;68.60;;;;;;5072684;28;20338;-33
2023/04/15 03:52:27;;;;;;;;;;;8.90;68.90;;;;;;5072381;28;19935;-35
2023/04/15 03:54:53;;;;;;;;;;;8.90;69.10;;;;;;5072542;28;19958;-33
2023/04/15 03:57:18;;;;;;;;;;;8.80;69.20;;;;;;5072560;28;19915;-39
2023/04/15 03:59:44;;;;;;;;;;;8.80;69.60;;;;;;5072298;28;19919;-34
2023/04/15 04:02:09;;;;;;;;;;;8.70;70.10;;;;;;5072349;28;19912;-35
2023/04/15 04:04:35;;;;;;;;;;;8.70;69.70;;;;;;5072207;28;19908;-33
2023/04/15 04:07:00;;;;;;;;;;;8.70;69.90;;;;;;5072268;28;19919;-34
2023/04/15 04:09:26;;;;;;;;;;;8.60;69.90;;;;;;5072265;28;19913;-36
2023/04/15 04:11:52;;;;;;;;;;;8.60;70.10;;;;;;5070864;28;20320;-35
2023/04/15 04:14:17;;;;;;;;;;;8.60;70.20;;;;;;5072289;28;19958;-34
2023/04/15 04:16:43;;;;;;;;;;;8.50;70.20;;;;;;5072146;28;19908;-35
2023/04/15 04:19:09;;;;;;;;;;;8.50;70.20;;;;;;5072402;28;19916;-35
2023/04/15 04:21:35;;;;;;;;;;;8.50;70.20;;;;;;5071999;28;19948;-34
2023/04/15 04:24:01;;;;;;;;;;;8.50;70.40;;;;;;5072490;28;19912;-34
2023/04/15 04:26:26;;;;;;;;;;;8.50;70.40;;;;;;5072289;28;19915;-35
2023/04/15 04:28:52;;;;;;;;;;;8.50;70.50;;;;;;5071833;28;19935;-34
2023/04/15 04:31:17;;;;;;;;;;;8.40;70.50;;;;;;5072471;28;19944;-35
2023/04/15 04:33:43;;;;;;;;;;;8.40;70.60;;;;;;5072209;28;20330;-35
2023/04/15 04:36:08;;;;;;;;;;;8.40;70.80;;;;;;5071898;28;19909;-42
2023/04/15 04:38:34;;;;;;;;;;;8.40;70.90;;;;;;5071724;28;20379;-35
2023/04/15 04:40:59;;;;;;;;;;;8.30;71.00;;;;;;5071953;28;19951;-35
2023/04/15 04:43:25;;;;;;;;;;;8.30;71.10;;;;;;5071770;28;19962;-34
2023/04/15 04:45:51;;;;;;;;;;;8.30;71.20;;;;;;5071955;28;19908;-35
2023/04/15 04:48:17;;;;;;;;;;;8.20;71.30;;;;;;5071853;28;20280;-38
2023/04/15 04:50:43;;;;;;;;;;;8.20;71.40;;;;;;5071613;28;19920;-34
2023/04/15 04:53:09;;;;;;;;;;;8.10;71.60;;;;;;5071659;28;19916;-35
2023/04/15 04:55:35;;;;;;;;;;;8.10;71.70;;;;;;5071566;28;20272;-35
2023/04/15 04:58:01;;;;;;;;;;;8.10;71.80;;;;;;5071707;28;20003;-34
2023/04/15 05:00:27;;;;;;;;;;;8.10;72.20;;;;;;5071462;28;20379;-36
2023/04/15 05:02:53;;;;;;;;;;;8.00;72.80;;;;;;5071319;28;19991;-35
2023/04/15 05:05:18;;;;;;;;;;;8.00;72.80;;;;;;5071763;28;19916;-36
2023/04/15 05:07:44;;;;;;;;;;;8.00;72.40;;;;;;5071637;28;19908;-35
2023/04/15 05:10:09;;;;;;;;;;;8.00;72.60;;;;;;5071422;28;19909;-36
2023/04/15 05:12:36;;;;;;;;;;;7.90;72.70;;;;;;5071587;28;20411;-35
2023/04/15 05:15:01;;;;;;;;;;;7.90;72.90;;;;;;5071769;28;20364;-39
2023/04/15 05:17:27;;;;;;;;;;;7.90;73.00;;;;;;5071483;28;19967;-35
2023/04/15 05:19:53;;;;;;;;;;;7.90;73.10;;;;;;5071612;28;19919;-36
2023/04/15 05:22:18;;;;;;;;;;;7.90;73.10;;;;;;5071441;28;19948;-35
2023/04/15 05:24:44;;;;;;;;;;;7.90;73.10;;;;;;5071312;28;19908;-36
2023/04/15 05:27:10;;;;;;;;;;;7.90;73.10;;;;;;5071689;28;19970;-37
2023/04/15 05:29:36;;;;;;;;;;;7.90;73.30;;;;;;5072829;28;20331;-36
2023/04/15 05:32:01;;;;;;;;;;;8.00;73.30;;;;;;5076047;28;19931;-34
2023/04/15 05:34:26;;;;;;;;;;;8.00;73.30;;;;;;5075373;28;19909;-34
2023/04/15 05:36:52;;;;;;;;;;;8.00;73.60;;;;;;5075567;28;20394;-34
2023/04/15 05:39:17;;;;;;;;;;;8.00;73.80;;;;;;5075418;28;19935;-32
2023/04/15 05:41:43;;;;;;;;;;;8.00;73.80;;;;;;5075651;28;20003;-34
2023/04/15 05:44:09;;;;;;;;;;;8.10;74.00;;;;;;5074001;28;20205;-34
2023/04/15 05:46:34;;;;;;;;;;;8.10;74.00;;;;;;5075233;28;19908;-35
2023/04/15 05:49:00;;;;;;;;;;;8.10;74.10;;;;;;5075161;28;19909;-35
2023/04/15 05:51:25;;;;;;;;;;;8.10;74.20;;;;;;5075162;28;19909;-34
2023/04/15 05:53:50;;;;;;;;;;;8.10;74.10;;;;;;5075307;28;19989;-41
2023/04/15 05:56:16;;;;;;;;;;;8.20;74.20;;;;;;5075048;28;19916;-33
2023/04/15 05:58:42;;;;;;;;;;;8.30;74.20;;;;;;5075266;28;20036;-34
2023/04/15 06:01:07;;;;;;;;;;;8.40;74.80;;;;;;5075410;28;20006;-35
2023/04/15 06:03:33;;;;;;;;;;;8.40;74.50;;;;;;5075235;28;19909;-35
2023/04/15 06:05:59;;;;;;;;;;;8.50;74.60;;;;;;5075063;28;19909;-36
2023/04/15 06:08:25;;;;;;;;;;;8.60;74.60;;;;;;5075062;28;19908;-35
2023/04/15 06:10:50;;;;;;;;;;;8.70;74.40;;;;;;5074964;28;20435;-35
2023/04/15 06:13:16;;;;;;;;;;;8.70;74.60;;;;;;5074611;28;20293;-35
2023/04/15 06:15:42;;;;;;;;;;;8.80;74.80;;;;;;5075046;28;19927;-35
2023/04/15 06:18:07;;;;;;;;;;;8.90;74.70;;;;;;5074778;28;19944;-36
2023/04/15 06:20:32;;;;;;;;;;;8.90;74.20;;;;;;5074268;28;19912;-35
2023/04/15 06:22:58;;;;;;;;;;;9.00;74.30;;;;;;5074472;28;19913;-36
2023/04/15 06:25:23;;;;;;;;;;;9.00;74.40;;;;;;5074647;28;19908;-35
2023/04/15 06:27:49;;;;;;;;;;;9.10;74.40;;;;;;5074366;28;19955;-36
2023/04/15 06:30:15;;;;;;;;;;;9.10;74.80;;;;;;5074245;28;20439;-34
2023/04/15 06:32:40;;;;;;;;;;;9.10;74.80;;;;;;5074196;28;20368;-41
2023/04/15 06:35:06;;;;;;;;;;;9.10;74.70;;;;;;5074181;28;19957;-34
2023/04/15 06:37:31;;;;;;;;;;;9.10;74.90;;;;;;5074158;28;19959;-34
2023/04/15 06:39:57;;;;;;;;;;;9.10;74.60;;;;;;5073485;28;19962;-37
2023/04/15 06:42:23;;;;;;;;;;;9.10;74.50;;;;;;5074075;28;19908;-33
2023/04/15 06:44:49;;;;;;;;;;;9.10;74.40;;;;;;5074373;28;20349;-35
2023/04/15 06:47:14;;;;;;;;;;;9.10;74.40;;;;;;5074426;28;20364;-33
2023/04/15 06:49:40;;;;;;;;;;;9.10;74.30;;;;;;5074359;28;19909;-35
2023/04/15 06:52:05;;;;;;;;;;;9.20;74.20;;;;;;5074038;28;19915;-32
2023/04/15 06:54:31;;;;;;;;;;;9.20;74.10;;;;;;5074162;28;19915;-35
2023/04/15 06:56:56;;;;;;;;;;;9.20;74.40;;;;;;5073989;28;20288;-34
2023/04/15 06:59:22;;;;;;;;;;;9.20;74.10;;;;;;5074213;28;19947;-34
2023/04/15 07:01:47;;;;;;;;;;;9.20;74.00;;;;;;5073889;28;19908;-35
2023/04/15 07:04:13;;;;;;;;;;;9.20;73.90;;;;;;5073728;28;19913;-32
2023/04/15 07:06:38;;;;;;;;;;;9.20;73.80;;;;;;5074310;28;19908;-35
2023/04/15 07:09:04;;;;;;;;;;;9.30;73.80;;;;;;5073753;28;19916;-34
2023/04/15 07:11:29;;;;;;;;;;;9.30;73.90;;;;;;5073632;28;19908;-39
2023/04/15 07:13:56;;;;;;;;;;;9.30;73.60;;;;;;5073577;28;20390;-34
2023/04/15 07:16:21;;;;;;;;;;;9.40;73.60;;;;;;5073439;28;20338;-36
2023/04/15 07:18:47;;;;;;;;;;;9.40;74.30;;;;;;5073114;28;19912;-34
2023/04/15 07:21:12;;;;;;;;;;;9.40;73.60;;;;;;5073571;28;19908;-35
2023/04/15 07:23:38;;;;;;;;;;;9.40;73.60;;;;;;5073445;28;19960;-35
2023/04/15 07:26:03;;;;;;;;;;;9.40;73.70;;;;;;5071969;28;20393;-35
2023/04/15 07:28:29;;;;;;;;;;;9.40;74.00;;;;;;5073034;28;19924;-35
2023/04/15 07:30:56;;;;;;;;;;;9.30;74.20;;;;;;5073567;28;20413;-34
2023/04/15 07:33:21;;;;;;;;;;;9.40;74.10;;;;;;5073381;28;19995;-35
2023/04/15 07:35:47;;;;;;;;;;;9.40;74.00;;;;;;5072923;28;19958;-33
2023/04/15 07:38:12;;;;;;;;;;;9.40;74.90;;;;;;5072952;28;19925;-35
2023/04/15 07:40:38;;;;;;;;;;;9.50;74.00;;;;;;5072961;28;19913;-35
2023/04/15 07:43:04;;;;;;;;;;;9.50;74.00;;;;;;5073142;28;19908;-35
2023/04/15 07:45:30;;;;;;;;;;;9.60;74.10;;;;;;5072749;28;19912;-35
2023/04/15 07:47:55;;;;;;;;;;;9.60;73.90;;;;;;5072513;28;19952;-35
2023/04/15 07:50:22;;;;;;;;;;;9.60;73.80;;;;;;5072769;28;19909;-37
2023/04/15 07:52:47;;;;;;;;;;;9.70;73.80;;;;;;5072149;28;19908;-33
2023/04/15 07:55:14;;;;;;;;;;;9.80;74.00;;;;;;5072552;28;19985;-33
2023/04/15 07:57:39;;;;;;;;;;;9.80;73.60;;;;;;5072890;28;19909;-35
2023/04/15 08:00:06;;;;;;;;;;;9.90;73.60;;;;;;5072530;28;19919;-35
2023/04/15 08:02:31;;;;;;;;;;;10.00;73.30;;;;;;5072654;28;19909;-35
2023/04/15 08:04:57;;;;;;;;;;;10.10;73.40;;;;;;5072564;28;19915;-35
2023/04/15 08:07:24;;;;;;;;;;;10.20;73.30;;;;;;5072851;28;20399;-35
2023/04/15 08:09:49;;;;;;;;;;;10.20;72.90;;;;;;5072531;28;19951;-35
2023/04/15 08:12:15;;;;;;;;;;;10.30;72.80;;;;;;5072541;28;20390;-35
2023/04/15 08:14:41;;;;;;;;;;;10.40;72.40;;;;;;5072675;28;19915;-42
2023/04/15 08:17:06;;;;;;;;;;;10.50;72.20;;;;;;5072148;28;19973;-40
2023/04/15 08:19:32;;;;;;;;;;;10.70;71.70;;;;;;5072259;28;19944;-36
2023/04/15 08:21:57;;;;;;;;;;;10.70;71.30;;;;;;5072622;28;19909;-35
2023/04/15 08:24:25;;;;;;;;;;;10.80;71.10;;;;;;5072015;28;20372;-36
2023/04/15 08:26:50;;;;;;;;;;;10.90;70.50;;;;;;5072302;28;20288;-35
2023/04/15 08:29:16;;;;;;;;;;;11.00;70.10;;;;;;5071867;28;20197;-35
2023/04/15 08:31:42;;;;;;;;;;;11.00;69.20;;;;;;5072219;28;20386;-37
2023/04/15 08:34:08;;;;;;;;;;;11.00;69.50;;;;;;5071746;28;20007;-34
2023/04/15 08:36:33;;;;;;;;;;;11.10;69.50;;;;;;5072229;28;19908;-37
2023/04/15 08:39:00;;;;;;;;;;;11.10;69.50;;;;;;5071377;28;20007;-35
2023/04/15 08:41:28;;;;;;;;;;;11.20;68.90;;;;;;5072149;28;20403;-35
2023/04/15 08:43:56;;;;;;;;;;;11.20;68.90;;;;;;5071957;28;19999;-35
2023/04/15 08:46:22;;;;;;;;;;;11.30;68.80;;;;;;5071621;28;19912;-36
2023/04/15 08:48:48;;;;;;;;;;;11.40;69.00;;;;;;5072014;28;19914;-35
2023/04/15 08:51:15;;;;;;;;;;;11.40;68.10;;;;;;5071955;28;19934;-34
2023/04/15 08:53:45;;;;;;;;;;;11.40;68.30;;;;;;5071419;28;19912;-36
2023/04/15 08:56:11;;;;;;;;;;;11.50;68.30;;;;;;5072175;28;20259;-35
2023/04/15 08:58:37;;;;;;;;;;;11.50;68.40;;;;;;5071394;28;20376;-35
2023/04/15 09:01:02;;;;;;;;;;;11.60;68.40;;;;;;5071492;28;19951;-35
2023/04/15 09:03:28;;;;;;;;;;;11.60;67.80;;;;;;5071482;28;19916;-33
2023/04/15 09:05:54;;;;;;;;;;;11.70;67.70;;;;;;5071596;28;19952;-34
2023/04/15 09:08:19;;;;;;;;;;;11.70;67.60;;;;;;5071562;28;19916;-35
2023/04/15 09:10:45;;;;;;;;;;;11.80;67.70;;;;;;5071577;28;20397;-36
2023/04/15 09:13:10;;;;;;;;;;;11.80;67.40;;;;;;5071341;28;19915;-37
2023/04/15 09:15:39;;;;;;;;;;;11.80;66.90;;;;;;5071661;28;20319;-35
2023/04/15 09:18:05;;;;;;;;;;;11.90;67.10;;;;;;5071141;28;19997;-34
2023/04/15 09:20:37;;;;;;;;;;;11.90;67.20;;;;;;5071352;28;19912;-36
2023/04/15 09:23:10;;;;;;;;;;;12.00;67.20;;;;;;5071382;28;19908;-34
2023/04/15 09:25:36;;;;;;;;;;;12.10;66.80;;;;;;5071560;28;19920;-33
2023/04/15 09:28:03;;;;;;;;;;;12.10;66.70;;;;;;5071133;28;19924;-35
2023/04/15 09:30:29;;;;;;;;;;;12.10;66.90;;;;;;5071308;28;19912;-34
2023/04/15 09:32:56;;;;;;;;;;;12.10;66.40;;;;;;5069771;28;19915;-35
2023/04/15 09:35:22;;;;;;;;;;;12.20;66.70;;;;;;5071243;28;19916;-34
2023/04/15 09:37:48;;;;;;;;;;;12.30;66.60;;;;;;5071460;28;20007;-40
2023/04/15 09:40:14;;;;;;;;;;;12.30;66.60;;;;;;5071168;28;20334;-37
2023/04/15 09:42:55;;;;;;;;;;;12.40;66.50;;;;;;5071320;28;19908;-36
2023/04/15 09:45:20;;;;;;;;;;;12.50;66.30;;;;;;5071200;28;19991;-35
2023/04/15 09:47:46;;;;;;;;;;;12.60;66.40;;;;;;5071293;28;19947;-36
2023/04/15 09:50:13;;;;;;;;;;;12.70;66.00;;;;;;5071447;28;19914;-36
2023/04/15 09:52:42;;;;;;;;;;;12.70;65.20;;;;;;5071247;28;19908;-36
2023/04/15 09:55:08;;;;;;;;;;;12.70;64.80;;;;;;5071474;28;19916;-36
2023/04/15 09:57:35;;;;;;;;;;;12.70;65.20;;;;;;5071428;28;19909;-36
2023/04/15 10:00:02;;;;;;;;;;;12.70;65.10;;;;;;5071275;28;19920;-36
2023/04/15 10:02:28;;;;;;;;;;;12.70;64.80;;;;;;5071294;28;20028;-37
2023/04/15 10:04:54;;;;;;;;;;;12.70;64.20;;;;;;5071160;28;19908;-39
2023/04/15 10:07:21;;;;;;;;;;;12.70;64.50;;;;;;5071117;28;19908;-37
2023/04/15 10:09:50;;;;;;;;;;;12.70;64.80;;;;;;5071000;28;20017;-36
2023/04/15 10:12:18;;;;;;;;;;;12.80;65.90;;;;;;5071036;28;20254;-36
2023/04/15 10:14:47;;;;;;;;;;;12.90;65.10;;;;;;5071067;28;19909;-35
2023/04/15 10:17:14;;;;;;;;;;;12.90;64.90;;;;;;5074391;28;20007;-36
2023/04/15 10:19:40;;;;;;;;;;;13.00;65.00;;;;;;5074966;28;20364;-36
2023/04/15 10:22:06;;;;;;;;;;;13.00;63.90;;;;;;5074717;28;19915;-40
2023/04/15 10:24:31;;;;;;;;;;;13.10;63.30;;;;;;5074341;28;19908;-37
2023/04/15 10:26:58;;;;;;;;;;;13.00;63.40;;;;;;5073450;28;20337;-36
2023/04/15 10:29:24;;;;;;;;;;;13.00;64.90;;;;;;5074670;28;19921;-36
2023/04/15 10:31:50;;;;;;;;;;;13.10;64.60;;;;;;5074367;28;19930;-36
2023/04/15 10:34:17;;;;;;;;;;;13.20;64.70;;;;;;5074790;28;20003;-35
2023/04/15 10:36:42;;;;;;;;;;;13.40;65.40;;;;;;5074548;28;19919;-36
2023/04/15 10:39:26;;;;;;;;;;;13.50;64.90;;;;;;5074491;28;20370;-35
2023/04/15 10:42:11;;;;;;;;;;;13.50;63.80;;;;;;5074215;28;19920;-36
2023/04/15 10:44:37;;;;;;;;;;;13.60;64.10;;;;;;5072993;28;19909;-38
2023/04/15 10:47:11;;;;;;;;;;;13.70;63.70;;;;;;5074881;28;19912;-36
2023/04/15 10:49:47;;;;;;;;;;;13.90;63.30;;;;;;5074702;28;19908;-36
2023/04/15 10:52:13;;;;;;;;;;;13.90;63.10;;;;;;5074381;28;19974;-36
2023/04/15 10:54:38;;;;;;;;;;;14.00;62.00;;;;;;5074310;28;19971;-36
2023/04/15 10:57:04;;;;;;;;;;;14.00;61.90;;;;;;5074491;28;19940;-37
2023/04/15 10:59:30;;;;;;;;;;;13.90;61.40;;;;;;5074033;28;19974;-36
2023/04/15 11:01:59;;;;;;;;;;;13.80;61.30;;;;;;5073977;28;19908;-47
2023/04/15 11:04:44;;;;;;;;;;;13.80;61.10;;;;;;5073800;28;19955;-38
2023/04/15 11:07:09;;;;;;;;;;;13.70;61.30;;;;;;5074108;28;19916;-51
2023/04/15 11:09:35;;;;;;;;;;;13.70;61.60;;;;;;5074021;28;20425;-40
2023/04/15 11:12:05;;;;;;;;;;;13.70;61.70;;;;;;5074072;28;19966;-40
2023/04/15 11:14:31;;;;;;;;;;;13.80;61.00;;;;;;5073866;28;19920;-36
2023/04/15 11:16:57;;;;;;;;;;;13.90;61.00;;;;;;5073497;28;19978;-36
2023/04/15 11:19:22;;;;;;;;;;;13.90;61.20;;;;;;5073616;28;19913;-37
2023/04/15 11:21:48;;;;;;;;;;;13.90;61.50;;;;;;5073543;28;20003;-36
2023/04/15 11:24:26;;;;;;;;;;;14.00;61.70;;;;;;5073530;28;19909;-35
2023/04/15 11:26:56;;;;;;;;;;;14.10;60.80;;;;;;5072512;28;19926;-37
2023/04/15 11:29:21;;;;;;;;;;;14.20;61.00;;;;;;5073269;28;20006;-37
2023/04/15 11:31:50;;;;;;;;;;;14.30;60.70;;;;;;5073442;28;19908;-36
2023/04/15 11:34:21;;;;;;;;;;;14.40;59.30;;;;;;5073367;28;19999;-38
2023/04/15 11:36:47;;;;;;;;;;;14.40;58.60;;;;;;5073278;28;20007;-36
2023/04/15 11:39:12;;;;;;;;;;;14.40;59.00;;;;;;5073305;28;20004;-36
2023/04/15 11:41:41;;;;;;;;;;;14.50;59.00;;;;;;5073606;28;20367;-36
2023/04/15 11:44:16;;;;;;;;;;;14.60;57.90;;;;;;5073192;28;20345;-37
2023/04/15 11:46:42;;;;;;;;;;;14.70;58.70;;;;;;5071909;28;20003;-37
2023/04/15 11:49:07;;;;;;;;;;;14.80;56.80;;;;;;5073100;28;19947;-35
2023/04/15 11:51:33;;;;;;;;;;;14.80;56.70;;;;;;5073115;28;19962;-36
2023/04/15 11:53:59;;;;;;;;;;;14.80;57.20;;;;;;5073096;28;19919;-37
2023/04/15 11:56:26;;;;;;;;;;;14.80;57.30;;;;;;5072930;28;19999;-42
2023/04/15 11:58:52;;;;;;;;;;;14.90;57.20;;;;;;5073054;28;20011;-38
2023/04/15 12:01:18;;;;;;;;;;;14.80;56.30;;;;;;5073091;28;19915;-41
2023/04/15 12:03:47;;;;;;;;;;;14.80;56.60;;;;;;5072850;28;19916;-38
2023/04/15 12:06:15;;;;;;;;;;;14.80;56.40;;;;;;5072644;28;19908;-36
2023/04/15 12:08:59;;;;;;;;;;;14.80;56.50;;;;;;5072860;28;19908;-38
2023/04/15 12:11:25;;;;;;;;;;;14.80;56.30;;;;;;5073134;28;20314;-36
2023/04/15 12:13:52;;;;;;;;;;;14.80;56.80;;;;;;5072711;28;19915;-38
2023/04/15 12:16:18;;;;;;;;;;;14.80;56.30;;;;;;5072634;28;20001;-36
2023/04/15 12:18:45;;;;;;;;;;;14.60;56.70;;;;;;5072732;28;20432;-37
2023/04/15 12:21:10;;;;;;;;;;;14.60;56.70;;;;;;5072400;28;19909;-36
2023/04/15 12:23:36;;;;;;;;;;;14.50;57.10;;;;;;5072584;28;19915;-37
2023/04/15 12:26:04;;;;;;;;;;;14.60;57.80;;;;;;5072468;28;19912;-36
2023/04/15 12:28:29;;;;;;;;;;;14.80;57.30;;;;;;5072472;28;19920;-36
2023/04/15 12:30:55;;;;;;;;;;;15.00;57.00;;;;;;5072212;28;19908;-36
2023/04/15 12:33:20;;;;;;;;;;;14.90;56.30;;;;;;5072143;28;20411;-36
2023/04/15 12:35:46;;;;;;;;;;;14.90;56.10;;;;;;5072356;28;20364;-37
2023/04/15 12:38:11;;;;;;;;;;;14.80;56.30;;;;;;5071612;28;20354;-37
2023/04/15 12:40:37;;;;;;;;;;;14.70;56.60;;;;;;5071794;28;19913;-34
2023/04/15 12:43:02;;;;;;;;;;;14.80;57.10;;;;;;5072290;28;19908;-37
2023/04/15 12:45:28;;;;;;;;;;;15.00;57.00;;;;;;5072100;28;19909;-38
2023/04/15 12:47:53;;;;;;;;;;;15.00;56.60;;;;;;5072148;28;19908;-37
2023/04/15 12:50:19;;;;;;;;;;;15.10;56.70;;;;;;5072214;28;19943;-37
2023/04/15 12:52:44;;;;;;;;;;;15.00;57.00;;;;;;5072217;28;19959;-36
2023/04/15 12:55:11;;;;;;;;;;;15.00;57.10;;;;;;5072142;28;19931;-36
2023/04/15 12:57:36;;;;;;;;;;;14.90;57.60;;;;;;5071833;28;19969;-35
2023/04/15 13:00:05;;;;;;;;;;;15.10;57.70;;;;;;5071778;28;20033;-36
2023/04/15 13:02:31;;;;;;;;;;;15.10;57.00;;;;;;5072539;28;19934;-37
2023/04/15 13:04:56;;;;;;;;;;;15.10;56.70;;;;;;5072119;28;19938;-36
2023/04/15 13:07:22;;;;;;;;;;;15.10;57.00;;;;;;5072100;28;19913;-38
2023/04/15 13:09:47;;;;;;;;;;;15.10;57.50;;;;;;5071824;28;19932;-34
2023/04/15 13:12:13;;;;;;;;;;;15.00;57.00;;;;;;5071914;28;19966;-37
2023/04/15 13:14:38;;;;;;;;;;;15.10;57.40;;;;;;5072068;28;19916;-35
2023/04/15 13:17:08;;;;;;;;;;;15.10;56.70;;;;;;5072257;28;19908;-37
2023/04/15 13:19:35;;;;;;;;;;;15.10;56.30;;;;;;5071606;28;19946;-37
2023/04/15 13:22:01;;;;;;;;;;;15.00;56.90;;;;;;5072237;28;19978;-38
2023/04/15 13:24:26;;;;;;;;;;;15.00;56.80;;;;;;5072126;28;19908;-35
2023/04/15 13:26:52;;;;;;;;;;;15.00;56.80;;;;;;5071688;28;19912;-40
2023/04/15 13:29:18;;;;;;;;;;;14.90;56.60;;;;;;5071675;28;19928;-36
2023/04/15 13:31:43;;;;;;;;;;;14.90;56.30;;;;;;5071724;28;19909;-38
2023/04/15 13:34:09;;;;;;;;;;;15.00;56.90;;;;;;5071623;28;19975;-39
2023/04/15 13:36:34;;;;;;;;;;;15.10;56.10;;;;;;5070405;28;20353;-37
2023/04/15 13:39:00;;;;;;;;;;;15.10;56.20;;;;;;5071276;28;19920;-35
2023/04/15 13:41:25;;;;;;;;;;;15.10;56.40;;;;;;5071450;28;19916;-34
2023/04/15 13:43:51;;;;;;;;;;;15.10;56.10;;;;;;5071023;28;19916;-35
2023/04/15 13:46:16;;;;;;;;;;;15.10;56.70;;;;;;5071089;28;19913;-36
2023/04/15 13:48:42;;;;;;;;;;;15.00;56.60;;;;;;5069733;28;19913;-35
2023/04/15 13:51:07;;;;;;;;;;;15.00;56.70;;;;;;5072998;28;19908;-35
2023/04/15 13:53:33;;;;;;;;;;;14.90;57.20;;;;;;5074847;28;20368;-35
2023/04/15 13:55:58;;;;;;;;;;;14.80;57.30;;;;;;5075267;28;20279;-35
2023/04/15 13:58:24;;;;;;;;;;;14.60;57.80;;;;;;5074962;28;19999;-36
2023/04/15 14:00:49;;;;;;;;;;;14.50;58.10;;;;;;5074852;28;20322;-35
2023/04/15 14:03:15;;;;;;;;;;;14.40;58.30;;;;;;5074696;28;19912;-35
2023/04/15 14:05:40;;;;;;;;;;;14.30;58.70;;;;;;5074825;28;20319;-47
2023/04/15 14:08:06;;;;;;;;;;;14.10;59.00;;;;;;5075193;28;19908;-34
2023/04/15 14:10:31;;;;;;;;;;;14.00;59.40;;;;;;5074787;28;20303;-37
2023/04/15 14:12:57;;;;;;;;;;;13.90;59.90;;;;;;5074744;28;19954;-34
2023/04/15 14:15:22;;;;;;;;;;;13.80;60.10;;;;;;5074728;28;20362;-35
2023/04/15 14:17:47;;;;;;;;;;;13.70;60.00;;;;;;5074851;28;19916;-42